Aérodrome :
LOGIN :

S'inscrire | Disclaimer

   EN    FR    IT 

 










Légende :    VFR   VFR Marginal   IFR   IFR Intensif   IFR Très Intensif
Visi : 
Plafond : 
>= 8 km
>= 3000ft
5 à 8 km
1000 à 3000 ft
1500m à 5 km
500 à 1000 ft
800 à 1500m
200 à 500 ft
< 800m
< 200 ft
Symboles :   Orages  Brouillard  Fortes neiges  Fortes précipitations  Vent > 20 kt
SIGMETs :   Divers  Orages  Givrage  Turbulence  Onde Orograph.  Cendres Volcan.






- Altitude de l'aérodrome : 160 ft
- Code IATA : LRT


LFRH - Lorient Lann Bihoue

DERNIER METAR :
  • 291830Z AUTO 15007KT 9999 FEW022 BKN034 09/08 Q1015 NOSIG

METARs EXPIRÉS :
  • 291800Z AUTO 15006KT 9999 FEW007 09/07 Q1015 NOSIG
  • 291730Z AUTO 15006KT 9999 FEW028 09/07 Q1015 NOSIG
  • 291700Z AUTO 16006KT 9999 BKN029 10/08 Q1015 NOSIG
  • 291630Z AUTO 17006KT 9999 FEW014 SCT019 10/08 Q1016 NOSIG
  • 291600Z AUTO 19008KT 9999 BKN016 11/08 Q1016 NOSIG

TAF TAF LFRH
Valide du 29 à 18h jusqu'au 30 à 18h UTC


291700Z 2918/3018 15008KT 9999 BKN025
BECMG 2921/2923 4000 RADZ BKN003 BKN005
TEMPO 3001/3006 1500 +DZ VV///
BECMG 3004/3006 23012KT
TEMPO 3007/3018 2000 DZ BKN002



MET'MAP, la Météo Aéronautique d'un coup d'oeil ! - Copyright ORBIFLY Décembre 2007 - Disclaimer

ORBIFLY MET'MAP TEAM :

Programmation & Développement : Alexandra Zaïnal
Sur une idée originale de : Baudouin d'Aumeries
Assistance à la programmation : Marc-Olivier Méhu
Soutien technique & logistique : Manuel Goepfert

Contact : metmap@orbifly.com




SOURCES & CREDITS :

   NOAA